createdAt,value
2018-03-15T00:00:58.273Z,11.10
2018-03-15T00:02:29.434Z,11.30
2018-03-15T00:03:30.163Z,11.40
2018-03-15T00:04:31.902Z,11.10
2018-03-15T00:06:13.272Z,11.10
2018-03-15T00:07:13.990Z,10.90
2018-03-15T00:08:14.659Z,11.20
2018-03-15T00:09:28.536Z,10.60
2018-03-15T00:10:29.197Z,11.30
2018-03-15T00:11:29.879Z,12.10
2018-03-15T00:12:30.592Z,11.50
2018-03-15T00:14:23.359Z,11.60
2018-03-15T00:16:11.688Z,11.50
2018-03-15T00:17:12.369Z,11.30
2018-03-15T00:18:13.591Z,12.00
2018-03-15T00:19:14.233Z,11.90
2018-03-15T00:20:14.927Z,12.00
2018-03-15T00:21:15.624Z,11.30
2018-03-15T00:22:24.057Z,12.00
2018-03-15T00:23:50.724Z,12.60
2018-03-15T00:24:52.141Z,12.50
2018-03-15T00:25:52.784Z,13.60
2018-03-15T00:26:53.472Z,12.50
2018-03-15T00:28:25.027Z,12.50
2018-03-15T00:29:26.548Z,11.80
2018-03-15T00:30:27.474Z,12.10
2018-03-15T00:31:28.176Z,12.40
2018-03-15T00:32:28.874Z,13.00
2018-03-15T00:33:29.556Z,12.80
2018-03-15T00:34:30.256Z,12.30
2018-03-15T00:35:30.956Z,12.60
2018-03-15T00:38:26.726Z,12.40
2018-03-15T00:39:27.400Z,12.80
2018-03-15T00:40:28.127Z,13.60
2018-03-15T00:42:33.866Z,13.60
2018-03-15T00:43:34.563Z,13.30
2018-03-15T00:44:35.336Z,13.30
2018-03-15T00:46:37.509Z,13.00
2018-03-15T00:47:38.214Z,13.40
2018-03-15T00:49:27.655Z,13.50
2018-03-15T00:50:28.357Z,13.50
2018-03-15T00:51:29.184Z,13.60
2018-03-15T00:52:29.915Z,13.70
2018-03-15T00:53:30.603Z,13.90
2018-03-15T00:54:54.026Z,13.50
2018-03-15T00:55:54.705Z,13.50
2018-03-15T00:56:55.352Z,12.90
2018-03-15T00:57:56.037Z,14.30
2018-03-15T00:58:56.811Z,13.60
2018-03-15T00:59:57.476Z,14.80
2018-03-15T01:00:58.173Z,14.20
2018-03-15T01:01:58.860Z,14.40
2018-03-15T01:03:11.501Z,13.20
2018-03-15T01:04:21.174Z,15.30
2018-03-15T01:05:25.342Z,14.30
2018-03-15T01:07:08.744Z,14.30
2018-03-15T01:08:28.377Z,14.30
2018-03-15T01:09:35.379Z,15.40
2018-03-15T01:10:36.122Z,14.50
2018-03-15T01:11:36.818Z,14.30
2018-03-15T01:12:55.263Z,14.80
2018-03-15T01:13:55.919Z,14.80
2018-03-15T01:14:56.568Z,15.10
2018-03-15T01:15:57.262Z,15.20
2018-03-15T01:16:57.959Z,15.40
2018-03-15T01:17:58.642Z,15.50
2018-03-15T01:18:59.362Z,15.40
2018-03-15T01:20:00.045Z,14.50
2018-03-15T01:21:00.708Z,14.70
2018-03-15T01:22:01.384Z,15.60
2018-03-15T01:23:02.070Z,14.90
2018-03-15T01:24:02.761Z,14.60
2018-03-15T01:26:03.725Z,16.00
2018-03-15T01:27:04.405Z,15.60
2018-03-15T01:28:05.071Z,16.20
2018-03-15T01:29:05.752Z,16.10
2018-03-15T01:30:06.434Z,15.30
2018-03-15T01:31:07.130Z,15.40
2018-03-15T01:33:26.568Z,15.30
2018-03-15T01:34:27.256Z,15.80
2018-03-15T01:35:27.911Z,15.50
2018-03-15T01:36:28.599Z,15.90
2018-03-15T01:38:29.596Z,16.00
2018-03-15T01:39:30.274Z,16.20
2018-03-15T01:40:31.006Z,15.40
2018-03-15T01:41:31.685Z,16.10
2018-03-15T01:42:32.598Z,16.90
2018-03-15T01:44:02.941Z,15.30
2018-03-15T01:45:03.656Z,15.40
2018-03-15T01:46:04.322Z,15.30
2018-03-15T01:47:20.798Z,16.50
2018-03-15T01:48:21.529Z,16.50
2018-03-15T01:49:22.319Z,16.10
2018-03-15T01:50:22.954Z,15.90
2018-03-15T01:51:23.670Z,16.00
2018-03-15T01:53:01.683Z,16.50
2018-03-15T01:54:02.345Z,15.90
2018-03-15T01:55:33.009Z,17.00
2018-03-15T01:56:33.814Z,16.80
2018-03-15T01:57:34.506Z,17.00
2018-03-15T01:58:35.250Z,17.00
2018-03-15T01:59:35.893Z,15.60
2018-03-15T02:00:36.613Z,15.30
2018-03-15T02:01:37.322Z,17.40
2018-03-15T02:03:38.312Z,16.80
2018-03-15T02:04:38.999Z,16.50
2018-03-15T02:05:39.661Z,17.00
2018-03-15T02:06:40.341Z,17.30
2018-03-15T02:07:55.470Z,17.20
2018-03-15T02:08:56.144Z,17.00
2018-03-15T02:09:56.935Z,17.00
2018-03-15T02:10:57.576Z,17.20
2018-03-15T02:12:06.962Z,16.90
2018-03-15T02:13:07.679Z,17.00
2018-03-15T02:14:08.367Z,17.30
2018-03-15T02:15:09.023Z,17.80
2018-03-15T02:16:09.686Z,17.20
2018-03-15T02:17:10.366Z,17.00
2018-03-15T02:18:11.095Z,18.20
2018-03-15T02:19:25.208Z,16.40
2018-03-15T02:20:26.212Z,16.70
2018-03-15T02:21:27.171Z,17.90
2018-03-15T02:22:27.820Z,17.50
2018-03-15T02:23:53.916Z,17.90
2018-03-15T02:24:54.594Z,18.20
2018-03-15T02:26:00.175Z,17.60
2018-03-15T02:27:01.100Z,17.90
2018-03-15T02:28:24.473Z,18.40
2018-03-15T02:29:25.139Z,16.60
2018-03-15T02:30:25.865Z,18.40
2018-03-15T02:31:42.268Z,18.50
2018-03-15T02:32:48.038Z,18.50
2018-03-15T02:33:49.384Z,18.90
2018-03-15T02:34:50.108Z,18.20
2018-03-15T02:35:50.841Z,18.00
2018-03-15T02:36:51.511Z,18.10
2018-03-15T02:37:52.207Z,19.20
2018-03-15T02:38:52.916Z,19.00
2018-03-15T02:39:53.640Z,19.40
2018-03-15T02:41:54.620Z,20.30
2018-03-15T02:43:29.283Z,19.60
2018-03-15T02:44:30.005Z,19.30
2018-03-15T02:45:30.658Z,19.30
2018-03-15T02:46:31.335Z,19.70
2018-03-15T02:47:32.029Z,20.60
2018-03-15T02:48:32.732Z,21.20
2018-03-15T02:49:33.550Z,19.30
2018-03-15T02:50:34.268Z,21.60
2018-03-15T02:51:34.928Z,21.10
2018-03-15T02:52:35.673Z,19.60
2018-03-15T02:53:55.267Z,20.20
2018-03-15T02:54:56.589Z,21.50
2018-03-15T02:55:57.372Z,20.60
2018-03-15T02:56:58.186Z,21.80
2018-03-15T02:57:58.866Z,21.20
2018-03-15T02:58:59.529Z,22.60
2018-03-15T03:00:00.243Z,22.10
2018-03-15T03:02:01.192Z,22.10
2018-03-15T03:03:02.401Z,21.20
2018-03-15T03:04:03.122Z,21.20
2018-03-15T03:05:03.786Z,22.10
2018-03-15T03:06:04.510Z,22.20
2018-03-15T03:08:05.468Z,22.80
2018-03-15T03:09:10.422Z,23.40
2018-03-15T03:11:11.437Z,23.90
2018-03-15T03:12:12.100Z,22.40
2018-03-15T03:13:21.952Z,23.20
2018-03-15T03:14:22.706Z,23.90
2018-03-15T03:15:24.372Z,21.70
2018-03-15T03:17:25.342Z,24.00
2018-03-15T03:18:26.011Z,24.20
2018-03-15T03:19:29.548Z,22.10
2018-03-15T03:20:30.254Z,22.10
2018-03-15T03:21:30.997Z,23.20
2018-03-15T03:22:31.652Z,23.00
2018-03-15T03:24:32.596Z,22.70
2018-03-15T03:26:36.925Z,22.90
2018-03-15T03:27:37.588Z,23.80
2018-03-15T03:28:38.264Z,22.90
2018-03-15T03:29:42.032Z,23.50
2018-03-15T03:30:42.781Z,23.50
2018-03-15T03:31:43.533Z,24.40
2018-03-15T03:32:44.169Z,24.40
2018-03-15T03:33:44.873Z,23.90
2018-03-15T03:34:50.267Z,25.50
2018-03-15T03:35:59.192Z,23.60
2018-03-15T03:36:59.902Z,24.40
2018-03-15T03:38:00.598Z,23.20
2018-03-15T03:39:01.310Z,24.40
2018-03-15T03:40:21.189Z,23.30
2018-03-15T03:41:21.982Z,24.20
2018-03-15T03:42:22.671Z,23.60
2018-03-15T03:43:23.391Z,25.40
2018-03-15T03:44:40.314Z,24.10
2018-03-15T03:45:41.004Z,24.10
2018-03-15T03:46:41.743Z,22.90
2018-03-15T03:47:42.541Z,22.90
2018-03-15T03:48:43.193Z,23.20
2018-03-15T03:49:43.883Z,24.00
2018-03-15T03:50:44.550Z,22.80
2018-03-15T03:51:45.229Z,22.90
2018-03-15T03:52:46.858Z,24.00
2018-03-15T03:53:47.578Z,23.60
2018-03-15T03:54:48.272Z,22.20
2018-03-15T03:55:48.969Z,23.50
2018-03-15T03:56:49.673Z,21.80
2018-03-15T03:57:50.428Z,22.30
2018-03-15T03:58:51.075Z,22.10
2018-03-15T03:59:51.800Z,23.30
2018-03-15T04:00:52.453Z,22.30
2018-03-15T04:01:53.185Z,23.50
2018-03-15T04:02:53.865Z,22.50
2018-03-15T04:03:54.546Z,22.80
2018-03-15T04:04:55.271Z,23.10
2018-03-15T04:05:55.927Z,20.00
2018-03-15T04:06:56.649Z,22.80
2018-03-15T04:07:57.383Z,22.30
2018-03-15T04:08:58.172Z,20.70
2018-03-15T04:10:04.848Z,22.10
2018-03-15T04:11:05.857Z,22.80
2018-03-15T04:12:06.516Z,22.00
2018-03-15T04:13:07.201Z,21.50
2018-03-15T04:14:07.846Z,22.10
2018-03-15T04:15:08.504Z,21.30
2018-03-15T04:16:09.150Z,21.30
2018-03-15T04:17:09.829Z,21.40
2018-03-15T04:18:10.495Z,21.90
2018-03-15T04:19:11.471Z,22.50
2018-03-15T04:20:12.825Z,22.50
2018-03-15T04:21:13.529Z,22.50
2018-03-15T04:22:14.191Z,21.30
2018-03-15T04:23:14.868Z,20.70
2018-03-15T04:24:15.628Z,22.50
2018-03-15T04:25:19.692Z,22.20
2018-03-15T04:26:20.471Z,21.40
2018-03-15T04:27:23.658Z,21.40
2018-03-15T04:28:24.388Z,21.40
2018-03-15T04:29:25.080Z,22.80
2018-03-15T04:30:25.926Z,21.50
2018-03-15T04:31:26.688Z,21.70
2018-03-15T04:32:27.367Z,21.60
2018-03-15T04:33:28.055Z,21.30
2018-03-15T04:34:28.721Z,21.70
2018-03-15T04:35:29.487Z,20.80
2018-03-15T04:36:30.165Z,21.80
2018-03-15T04:37:30.887Z,21.80
2018-03-15T04:38:31.582Z,22.70
2018-03-15T04:39:32.328Z,21.70
2018-03-15T04:40:33.024Z,21.50
2018-03-15T04:41:33.776Z,21.10
2018-03-15T04:42:34.446Z,21.20
2018-03-15T04:43:35.130Z,21.50
2018-03-15T04:44:36.447Z,20.90
2018-03-15T04:45:37.101Z,20.80
2018-03-15T04:46:37.794Z,21.30
2018-03-15T04:47:38.506Z,21.80
2018-03-15T04:48:39.235Z,21.30
2018-03-15T04:49:40.003Z,20.90
2018-03-15T04:50:40.739Z,21.10
2018-03-15T04:51:42.220Z,21.40
2018-03-15T04:53:43.205Z,21.40
2018-03-15T04:54:43.874Z,21.60
2018-03-15T04:55:45.768Z,21.60
2018-03-15T04:56:46.496Z,20.20
2018-03-15T04:57:47.148Z,21.30
2018-03-15T04:58:48.003Z,21.20
2018-03-15T04:59:48.646Z,20.70
2018-03-15T05:00:49.304Z,20.90
2018-03-15T05:01:50.009Z,19.70
2018-03-15T05:02:50.719Z,20.20
2018-03-15T05:03:51.627Z,20.90
2018-03-15T05:04:52.352Z,20.90
2018-03-15T05:05:53.013Z,21.30
2018-03-15T05:06:53.689Z,20.60
2018-03-15T05:07:54.331Z,21.30
2018-03-15T05:08:55.962Z,20.90
2018-03-15T05:09:56.660Z,20.90
2018-03-15T05:10:57.362Z,20.80
2018-03-15T05:11:58.117Z,20.20
2018-03-15T05:12:58.763Z,19.90
2018-03-15T05:14:00.073Z,21.00
2018-03-15T05:15:00.714Z,20.50
2018-03-15T05:16:01.373Z,20.20
2018-03-15T05:18:02.364Z,19.60
2018-03-15T05:19:03.029Z,19.70
2018-03-15T05:21:04.023Z,19.70
2018-03-15T05:22:04.701Z,21.00
2018-03-15T05:23:05.474Z,20.10
2018-03-15T05:24:06.180Z,19.20
2018-03-15T05:25:06.904Z,20.40
2018-03-15T05:26:07.612Z,20.20
2018-03-15T05:27:08.319Z,19.50
2018-03-15T05:28:08.979Z,19.80
2018-03-15T05:29:09.645Z,19.90
2018-03-15T05:30:15.972Z,20.40
2018-03-15T05:31:16.698Z,19.50
2018-03-15T05:32:18.146Z,20.00
2018-03-15T05:33:18.812Z,20.70
2018-03-15T05:34:19.697Z,18.90
2018-03-15T05:35:21.092Z,19.60
2018-03-15T05:36:21.759Z,19.20
2018-03-15T05:37:22.429Z,19.20
2018-03-15T05:39:23.389Z,19.60
2018-03-15T05:40:24.082Z,19.50
2018-03-15T05:42:25.030Z,19.40
2018-03-15T05:43:25.754Z,19.00
2018-03-15T05:44:26.469Z,19.30
2018-03-15T05:45:27.245Z,19.00
2018-03-15T05:46:27.947Z,18.90
2018-03-15T05:47:28.626Z,18.90
2018-03-15T05:48:29.386Z,18.90
2018-03-15T05:50:30.470Z,19.00
2018-03-15T05:52:31.401Z,18.90
2018-03-15T05:53:32.052Z,18.80
2018-03-15T05:54:32.700Z,18.50
2018-03-15T05:55:33.376Z,18.90
2018-03-15T05:56:35.762Z,19.00
2018-03-15T05:57:37.229Z,18.90
2018-03-15T05:58:37.915Z,18.90
2018-03-15T05:59:38.627Z,18.00
2018-03-15T06:00:39.319Z,18.00
2018-03-15T06:01:41.305Z,19.30
2018-03-15T06:02:42.918Z,19.00
2018-03-15T06:03:43.599Z,18.30
2018-03-15T06:04:44.249Z,19.20
2018-03-15T06:05:45.044Z,18.10
2018-03-15T06:06:45.779Z,18.80
2018-03-15T06:07:46.493Z,18.60
2018-03-15T06:08:47.176Z,18.80
2018-03-15T06:09:47.829Z,17.90
2018-03-15T06:10:48.582Z,18.20
2018-03-15T06:11:49.243Z,18.20
2018-03-15T06:12:49.906Z,16.90
2018-03-15T06:13:50.589Z,18.10
2018-03-15T06:14:51.248Z,17.30
2018-03-15T06:15:51.913Z,17.30
2018-03-15T06:16:52.637Z,17.10
2018-03-15T06:17:53.396Z,17.30
2018-03-15T06:18:54.676Z,17.70
2018-03-15T06:19:55.509Z,18.00
2018-03-15T06:20:56.197Z,17.40
2018-03-15T06:21:56.880Z,17.30
2018-03-15T06:22:57.578Z,17.20
2018-03-15T06:24:58.591Z,18.30
2018-03-15T06:25:59.340Z,18.30
2018-03-15T06:27:01.184Z,15.90
2018-03-15T06:28:01.838Z,16.60
2018-03-15T06:29:03.086Z,17.60
2018-03-15T06:31:04.217Z,17.60
2018-03-15T06:32:04.922Z,15.90
2018-03-15T06:33:05.682Z,16.80
2018-03-15T06:34:06.415Z,16.50
2018-03-15T06:35:07.097Z,16.20
2018-03-15T06:36:07.781Z,16.70
2018-03-15T06:37:08.511Z,17.30
2018-03-15T06:38:09.167Z,16.30
2018-03-15T06:39:09.861Z,17.00
2018-03-15T06:40:10.532Z,16.80
2018-03-15T06:41:11.240Z,16.20
2018-03-15T06:42:11.949Z,16.80
2018-03-15T06:44:12.886Z,16.90
2018-03-15T06:45:13.641Z,16.00
2018-03-15T06:46:14.954Z,16.00
2018-03-15T06:47:15.647Z,16.80
2018-03-15T06:48:16.314Z,16.20
2018-03-15T06:49:17.033Z,16.40
2018-03-15T06:50:17.691Z,15.70
2018-03-15T06:51:18.413Z,16.20
2018-03-15T06:52:19.244Z,16.10
2018-03-15T06:53:19.933Z,15.50
2018-03-15T06:54:20.586Z,15.70
2018-03-15T06:55:21.345Z,16.30
2018-03-15T06:56:22.054Z,15.20
2018-03-15T06:57:23.273Z,15.30
2018-03-15T06:58:23.948Z,15.70
2018-03-15T06:59:24.618Z,16.20
2018-03-15T07:00:25.288Z,15.80
2018-03-15T07:01:26.967Z,15.20
2018-03-15T07:02:27.667Z,15.00
2018-03-15T07:03:28.346Z,15.20
2018-03-15T07:04:29.041Z,15.50
2018-03-15T07:05:29.712Z,15.40
2018-03-15T07:06:30.421Z,14.70
2018-03-15T07:07:31.109Z,15.10
2018-03-15T07:08:31.832Z,15.60
2018-03-15T07:09:32.508Z,15.10
2018-03-15T07:10:33.207Z,14.30
2018-03-15T07:11:33.930Z,14.70
2018-03-15T07:12:34.593Z,14.80
2018-03-15T07:13:35.992Z,14.30
2018-03-15T07:14:36.752Z,14.60
2018-03-15T07:15:37.422Z,14.60
2018-03-15T07:16:38.197Z,15.10
2018-03-15T07:17:38.911Z,15.00
2018-03-15T07:18:39.562Z,14.20
2018-03-15T07:19:40.247Z,14.70
2018-03-15T07:20:40.932Z,14.70
2018-03-15T07:21:41.655Z,14.10
2018-03-15T07:22:42.365Z,14.30
2018-03-15T07:23:43.042Z,14.60
2018-03-15T07:24:43.694Z,14.30
2018-03-15T07:25:44.360Z,14.00
2018-03-15T07:26:45.041Z,14.70
2018-03-15T07:27:45.708Z,14.50
2018-03-15T07:28:46.348Z,13.60
2018-03-15T07:29:47.041Z,14.30
2018-03-15T07:30:47.724Z,13.60
2018-03-15T07:31:51.162Z,13.70
2018-03-15T07:32:51.871Z,13.70
2018-03-15T07:33:52.637Z,14.10
2018-03-15T07:34:53.338Z,13.80
2018-03-15T07:35:54.113Z,14.50
2018-03-15T07:36:54.907Z,13.70
2018-03-15T07:37:55.592Z,13.50
2018-03-15T07:38:56.327Z,14.00
2018-03-15T07:39:56.986Z,14.20
2018-03-15T07:40:57.698Z,13.50
2018-03-15T07:41:58.341Z,13.40
2018-03-15T07:42:59.018Z,13.80
2018-03-15T07:43:59.742Z,14.40
2018-03-15T07:45:00.401Z,14.60
2018-03-15T07:46:01.061Z,13.90
2018-03-15T07:48:02.026Z,13.40
2018-03-15T07:49:02.762Z,14.50
2018-03-15T07:50:03.468Z,14.10
2018-03-15T07:51:04.148Z,13.70
2018-03-15T07:52:04.949Z,13.30
2018-03-15T07:53:06.329Z,12.80
2018-03-15T07:54:07.083Z,13.20
2018-03-15T07:55:07.753Z,13.20
2018-03-15T07:56:08.496Z,12.80
2018-03-15T07:58:09.493Z,12.70
2018-03-15T07:59:10.184Z,12.40
2018-03-15T08:00:11.013Z,12.20
2018-03-15T08:01:11.858Z,12.60
2018-03-15T08:02:12.557Z,12.20
2018-03-15T08:03:13.343Z,12.10
2018-03-15T08:04:14.075Z,11.30
2018-03-15T08:05:14.717Z,11.60
2018-03-15T08:06:15.381Z,11.80
2018-03-15T08:07:16.035Z,11.50
2018-03-15T08:08:16.745Z,11.20
2018-03-15T08:09:18.084Z,11.20
2018-03-15T08:10:18.753Z,11.60
2018-03-15T08:11:19.511Z,11.40
2018-03-15T08:12:20.261Z,11.30
2018-03-15T08:13:20.914Z,11.80
2018-03-15T08:14:23.849Z,11.10
2018-03-15T08:15:24.608Z,11.40
2018-03-15T08:16:25.337Z,11.50
2018-03-15T08:17:26.021Z,11.40
2018-03-15T08:18:26.777Z,10.90
2018-03-15T08:19:27.435Z,11.00
2018-03-15T08:20:28.140Z,11.00
2018-03-15T08:21:28.813Z,11.30
2018-03-15T08:22:30.242Z,10.80
2018-03-15T08:23:30.905Z,10.60
2018-03-15T08:24:31.591Z,10.70
2018-03-15T08:25:32.410Z,10.40
2018-03-15T08:26:33.090Z,10.70
2018-03-15T08:27:34.127Z,10.30
2018-03-15T08:28:34.794Z,10.30
2018-03-15T08:29:35.464Z,10.60
2018-03-15T08:30:37.368Z,10.60
2018-03-15T08:32:39.468Z,10.50
2018-03-15T08:33:41.055Z,10.80
2018-03-15T08:34:42.041Z,10.90
2018-03-15T08:35:42.777Z,11.10
2018-03-15T08:36:43.586Z,11.20
2018-03-15T08:37:44.268Z,10.60
2018-03-15T08:38:44.966Z,11.30
2018-03-15T08:39:45.612Z,11.30
2018-03-15T08:40:46.262Z,10.80
2018-03-15T08:41:47.044Z,11.10
2018-03-15T08:42:48.918Z,10.00
2018-03-15T08:43:50.203Z,10.30
2018-03-15T08:44:50.894Z,11.10
2018-03-15T08:45:53.919Z,10.60
2018-03-15T08:47:57.953Z,11.00
2018-03-15T08:48:58.688Z,10.70
2018-03-15T08:49:59.375Z,10.10
2018-03-15T08:51:00.271Z,11.10
2018-03-15T08:52:00.987Z,10.50
2018-03-15T08:53:01.711Z,10.40
2018-03-15T08:54:02.592Z,10.10
2018-03-15T08:55:03.284Z,10.90
2018-03-15T08:56:03.943Z,11.10
2018-03-15T08:57:04.695Z,10.40
2018-03-15T08:58:05.423Z,10.10
2018-03-15T08:59:06.091Z,10.10
2018-03-15T09:00:06.791Z,10.30
2018-03-15T09:01:09.503Z,9.80
2018-03-15T09:02:10.267Z,10.60
2018-03-15T09:03:11.090Z,9.50
2018-03-15T09:04:11.828Z,10.30
2018-03-15T09:05:12.544Z,9.80
2018-03-15T09:06:13.303Z,10.10
2018-03-15T09:07:14.205Z,9.90
2018-03-15T09:08:15.853Z,10.10
2018-03-15T09:09:16.645Z,10.00
2018-03-15T09:10:17.541Z,10.30
2018-03-15T09:11:18.656Z,10.60
2018-03-15T09:12:19.442Z,10.20
2018-03-15T09:13:20.208Z,9.80
2018-03-15T09:14:20.907Z,9.70
2018-03-15T09:15:21.617Z,9.50
2018-03-15T09:16:22.260Z,10.00
2018-03-15T09:17:25.164Z,10.00
2018-03-15T09:18:25.855Z,10.10
2018-03-15T09:19:27.371Z,9.80
2018-03-15T09:20:28.192Z,10.20
2018-03-15T09:21:29.137Z,9.60
2018-03-15T09:23:30.068Z,9.70
2018-03-15T09:24:30.794Z,9.60
2018-03-15T09:25:31.595Z,9.40
2018-03-15T09:26:32.262Z,10.30
2018-03-15T09:27:32.985Z,9.70
2018-03-15T09:28:33.890Z,9.60
2018-03-15T09:30:34.907Z,9.20
2018-03-15T09:31:35.623Z,9.70
2018-03-15T09:32:36.320Z,9.30
2018-03-15T09:33:37.167Z,9.90
2018-03-15T09:34:40.447Z,9.40
2018-03-15T09:35:41.186Z,9.40
2018-03-15T09:36:42.116Z,9.60
2018-03-15T09:37:42.934Z,9.60
2018-03-15T09:38:43.626Z,9.50
2018-03-15T09:39:44.374Z,9.30
2018-03-15T09:40:45.198Z,10.80
2018-03-15T09:41:45.994Z,9.40
2018-03-15T09:42:46.687Z,10.00
2018-03-15T09:43:47.568Z,9.50
2018-03-15T09:44:48.513Z,9.90
2018-03-15T09:45:49.176Z,9.90
2018-03-15T09:46:49.892Z,9.80
2018-03-15T09:47:52.894Z,9.40
2018-03-15T09:48:54.431Z,9.40
2018-03-15T09:49:55.182Z,8.90
2018-03-15T09:50:59.315Z,9.40
2018-03-15T09:52:00.021Z,9.40
2018-03-15T09:53:00.746Z,9.10
2018-03-15T09:54:01.474Z,9.60
2018-03-15T09:55:08.942Z,9.90
2018-03-15T09:56:09.696Z,9.00
2018-03-15T09:57:10.466Z,9.10
2018-03-15T09:58:11.196Z,9.20
2018-03-15T09:59:15.827Z,9.20
2018-03-15T10:00:17.518Z,9.30
2018-03-15T10:01:18.463Z,10.10
2018-03-15T10:02:19.217Z,9.40
2018-03-15T10:03:22.757Z,9.10
2018-03-15T10:04:39.611Z,9.10
2018-03-15T10:05:40.425Z,9.10
2018-03-15T10:06:41.159Z,8.30
2018-03-15T10:07:41.918Z,8.80
2018-03-15T10:08:42.829Z,8.60
2018-03-15T10:09:43.550Z,8.90
2018-03-15T10:10:44.402Z,8.70
2018-03-15T10:11:45.149Z,8.50
2018-03-15T10:12:45.813Z,8.90
2018-03-15T10:13:46.534Z,8.80
2018-03-15T10:14:47.276Z,9.30
2018-03-15T10:15:55.997Z,9.30
2018-03-15T10:16:57.279Z,10.10
2018-03-15T10:17:58.024Z,9.80
2018-03-15T10:18:58.766Z,9.40
2018-03-15T10:19:59.449Z,9.80
2018-03-15T10:21:00.275Z,9.20
2018-03-15T10:22:20.064Z,11.40
2018-03-15T10:23:22.201Z,9.50
2018-03-15T10:24:22.952Z,8.70
2018-03-15T10:25:26.393Z,9.90
2018-03-15T10:26:26.370Z,10.70
2018-03-15T10:27:27.167Z,11.30
2018-03-15T10:28:28.075Z,9.70
2018-03-15T10:29:28.792Z,9.60
2018-03-15T10:30:29.470Z,8.40
2018-03-15T10:31:30.217Z,8.70
2018-03-15T10:32:30.993Z,8.60
2018-03-15T10:33:31.707Z,8.20
2018-03-15T10:34:32.443Z,8.30
2018-03-15T10:35:33.176Z,8.80
2018-03-15T10:36:34.253Z,8.40
2018-03-15T10:37:35.004Z,8.70
2018-03-15T10:38:36.482Z,7.90
2018-03-15T10:39:37.238Z,8.30
2018-03-15T10:40:37.925Z,8.40
2018-03-15T10:41:40.172Z,8.40
2018-03-15T10:42:40.850Z,8.20
2018-03-15T10:43:41.578Z,8.30
2018-03-15T10:44:45.236Z,8.60
2018-03-15T10:45:50.121Z,8.60
2018-03-15T10:46:50.914Z,8.20
2018-03-15T10:47:51.849Z,8.30
2018-03-15T10:48:52.584Z,8.10
2018-03-15T10:49:53.309Z,8.10
2018-03-15T10:50:54.215Z,8.10
2018-03-15T10:51:54.966Z,8.20
2018-03-15T10:52:55.659Z,8.20
2018-03-15T10:53:56.395Z,8.30
2018-03-15T10:54:57.162Z,8.30
2018-03-15T10:55:57.918Z,8.20
2018-03-15T10:56:58.645Z,8.80
2018-03-15T10:57:59.469Z,8.50
2018-03-15T10:59:00.184Z,7.90
2018-03-15T11:00:01.021Z,8.10
2018-03-15T11:01:01.679Z,7.70
2018-03-15T11:02:03.486Z,8.40
2018-03-15T11:03:04.285Z,8.00
2018-03-15T11:04:05.026Z,8.40
2018-03-15T11:05:06.600Z,8.50
2018-03-15T11:06:08.456Z,8.30
2018-03-15T11:07:12.000Z,7.90
2018-03-15T11:08:16.711Z,7.90
2018-03-15T11:09:17.505Z,7.90
2018-03-15T11:10:18.199Z,8.10
2018-03-15T11:11:18.927Z,8.30
2018-03-15T11:12:19.669Z,7.90
2018-03-15T11:13:20.502Z,8.70
2018-03-15T11:15:03.551Z,8.40
2018-03-15T11:16:04.307Z,8.40
2018-03-15T11:17:05.156Z,8.60
2018-03-15T11:18:05.936Z,8.30
2018-03-15T11:19:08.737Z,8.30
2018-03-15T11:20:09.984Z,8.50
2018-03-15T11:21:10.779Z,8.10
2018-03-15T11:22:11.586Z,8.70
2018-03-15T11:23:20.181Z,8.50
2018-03-15T11:25:21.167Z,8.60
2018-03-15T11:26:21.869Z,8.60
2018-03-15T11:27:23.574Z,8.10
2018-03-15T11:28:24.372Z,8.30
2018-03-15T11:29:25.097Z,8.10
2018-03-15T11:30:25.842Z,8.20
2018-03-15T11:31:26.566Z,8.50
2018-03-15T11:32:27.286Z,8.20
2018-03-15T11:33:30.073Z,8.50
2018-03-15T11:34:30.955Z,9.00
2018-03-15T11:35:31.673Z,8.20
2018-03-15T11:36:32.474Z,8.80
2018-03-15T11:37:33.216Z,8.70
2018-03-15T11:38:34.052Z,9.10
2018-03-15T11:40:35.193Z,9.20
2018-03-15T11:42:36.332Z,9.20
2018-03-15T11:44:37.390Z,9.30
2018-03-15T11:45:38.216Z,8.70
2018-03-15T11:47:46.078Z,8.40
2018-03-15T11:48:46.892Z,8.80
2018-03-15T11:49:49.465Z,9.10
2018-03-15T11:50:50.201Z,8.60
2018-03-15T11:51:53.949Z,9.10
2018-03-15T11:53:24.885Z,9.50
2018-03-15T11:54:25.624Z,9.50
2018-03-15T11:55:26.295Z,9.00
2018-03-15T11:56:27.035Z,9.30
2018-03-15T11:57:27.783Z,10.20
2018-03-15T11:58:28.547Z,9.90
2018-03-15T11:59:29.280Z,9.60
2018-03-15T12:00:29.963Z,9.60
2018-03-15T12:01:30.745Z,9.00
2018-03-15T12:02:31.456Z,9.60
2018-03-15T12:03:33.235Z,10.30
2018-03-15T12:04:34.012Z,9.80
2018-03-15T12:05:42.197Z,9.90
2018-03-15T12:06:44.143Z,10.30
2018-03-15T12:07:45.084Z,10.60
2018-03-15T12:08:45.716Z,10.00
2018-03-15T12:09:46.539Z,9.60
2018-03-15T12:10:48.839Z,9.70
2018-03-15T12:11:49.544Z,9.60
2018-03-15T12:12:50.241Z,10.30
2018-03-15T12:13:52.902Z,9.90
2018-03-15T12:14:54.387Z,10.20
2018-03-15T12:15:55.110Z,9.90
2018-03-15T12:16:55.761Z,9.50
2018-03-15T12:17:56.537Z,9.20
2018-03-15T12:19:24.041Z,9.50
2018-03-15T12:20:24.809Z,9.10
2018-03-15T12:21:25.483Z,9.30
2018-03-15T12:22:26.246Z,8.70
2018-03-15T12:23:51.780Z,9.40
2018-03-15T12:24:52.823Z,9.20
2018-03-15T12:25:53.529Z,8.60
2018-03-15T12:26:54.259Z,9.10
2018-03-15T12:27:54.961Z,8.60
2018-03-15T12:28:56.690Z,8.40
2018-03-15T12:30:00.339Z,8.70
2018-03-15T12:31:03.140Z,8.90
2018-03-15T12:32:04.936Z,8.30
2018-03-15T12:33:19.573Z,8.10
2018-03-15T12:34:20.237Z,7.90
2018-03-15T12:35:20.951Z,8.20
2018-03-15T12:36:22.311Z,7.90
2018-03-15T12:37:22.970Z,8.10
2018-03-15T12:38:23.710Z,8.50
2018-03-15T12:39:24.660Z,7.60
2018-03-15T12:40:25.367Z,8.10
2018-03-15T12:41:26.079Z,7.90
2018-03-15T12:42:26.741Z,7.90
2018-03-15T12:43:28.990Z,7.60
2018-03-15T12:44:31.206Z,8.30
2018-03-15T12:45:32.778Z,7.90
2018-03-15T12:46:33.447Z,8.00
2018-03-15T12:47:37.252Z,8.10
2018-03-15T12:48:38.745Z,8.10
2018-03-15T12:50:39.691Z,8.50
2018-03-15T12:51:40.397Z,7.90
2018-03-15T12:52:41.128Z,8.10
2018-03-15T12:53:41.810Z,7.30
2018-03-15T12:54:42.471Z,8.10
2018-03-15T12:55:46.985Z,7.60
2018-03-15T12:56:47.670Z,7.60
2018-03-15T12:57:48.355Z,8.20
2018-03-15T12:58:49.008Z,7.60
2018-03-15T12:59:49.693Z,8.20
2018-03-15T13:00:50.365Z,7.70
2018-03-15T13:01:51.049Z,8.20
2018-03-15T13:02:52.972Z,8.20
2018-03-15T13:03:58.714Z,7.90
2018-03-15T13:05:00.083Z,8.10
2018-03-15T13:06:02.517Z,8.00
2018-03-15T13:07:03.180Z,8.00
2018-03-15T13:08:03.868Z,7.80
2018-03-15T13:09:04.525Z,7.80
2018-03-15T13:10:07.693Z,7.90
2018-03-15T13:11:08.411Z,7.90
2018-03-15T13:12:09.090Z,7.60
2018-03-15T13:13:09.756Z,7.70
2018-03-15T13:14:10.424Z,8.10
2018-03-15T13:15:27.520Z,8.10
2018-03-15T13:16:56.173Z,8.10
2018-03-15T13:17:56.941Z,8.00
2018-03-15T13:18:57.616Z,8.40
2018-03-15T13:20:21.580Z,8.50
2018-03-15T13:21:57.012Z,8.50
2018-03-15T13:22:58.252Z,8.50
2018-03-15T13:23:58.944Z,8.70
2018-03-15T13:24:59.619Z,8.20
2018-03-15T13:26:00.296Z,8.30
2018-03-15T13:27:01.050Z,8.30
2018-03-15T13:28:02.960Z,8.50
2018-03-15T13:29:03.626Z,8.60
2018-03-15T13:30:04.264Z,8.90
2018-03-15T13:31:04.985Z,8.20
2018-03-15T13:32:05.644Z,8.50
2018-03-15T13:33:06.293Z,8.50
2018-03-15T13:34:06.990Z,8.40
2018-03-15T13:35:07.623Z,8.40
2018-03-15T13:36:10.381Z,8.20
2018-03-15T13:37:21.004Z,8.20
2018-03-15T13:38:21.738Z,8.70
2018-03-15T13:39:22.429Z,8.70
2018-03-15T13:40:23.117Z,8.30
2018-03-15T13:41:23.793Z,8.90
2018-03-15T13:42:24.441Z,8.50
2018-03-15T13:43:25.110Z,8.70
2018-03-15T13:44:25.977Z,8.80
2018-03-15T13:45:58.263Z,8.20
2018-03-15T13:48:29.383Z,8.80
2018-03-15T13:49:30.200Z,9.20
2018-03-15T13:50:30.845Z,8.70
2018-03-15T13:51:43.670Z,8.40
2018-03-15T13:52:49.289Z,8.40
2018-03-15T13:54:24.981Z,8.60
2018-03-15T13:55:36.401Z,8.60
2018-03-15T13:56:37.144Z,8.60
2018-03-15T13:57:37.844Z,9.30
2018-03-15T13:58:38.565Z,9.30
2018-03-15T13:59:39.246Z,8.50
2018-03-15T14:00:39.897Z,9.00
2018-03-15T14:01:40.616Z,9.10
2018-03-15T14:02:47.926Z,9.70
2018-03-15T14:03:49.313Z,9.40
2018-03-15T14:04:49.973Z,9.10
2018-03-15T14:05:50.698Z,8.90
2018-03-15T14:06:54.492Z,9.50
2018-03-15T14:07:55.193Z,9.50
2018-03-15T14:08:56.110Z,9.30
2018-03-15T14:09:56.823Z,9.40
2018-03-15T14:10:57.468Z,9.40
2018-03-15T14:11:58.181Z,9.30
2018-03-15T14:12:58.858Z,9.50